createdAt,value
2018-08-19T00:00:12.055Z,0.00
2018-08-19T00:01:11.974Z,0.00
2018-08-19T00:02:11.958Z,0.00
2018-08-19T00:03:11.939Z,0.00
2018-08-19T00:04:11.888Z,0.00
2018-08-19T00:05:11.872Z,0.00
2018-08-19T00:06:11.852Z,0.00
2018-08-19T00:07:11.813Z,0.00
2018-08-19T00:08:11.792Z,0.00
2018-08-19T00:09:11.779Z,0.00
2018-08-19T00:10:11.770Z,0.00
2018-08-19T00:11:11.735Z,0.00
2018-08-19T00:12:11.695Z,0.00
2018-08-19T00:13:11.672Z,0.00
2018-08-19T00:14:11.639Z,0.00
2018-08-19T00:15:11.618Z,0.00
2018-08-19T00:16:11.588Z,0.00
2018-08-19T00:17:11.595Z,0.00
2018-08-19T00:18:11.553Z,0.00
2018-08-19T00:19:11.537Z,0.00
2018-08-19T00:20:11.491Z,0.00
2018-08-19T00:21:11.474Z,0.00
2018-08-19T00:22:11.442Z,0.00
2018-08-19T00:23:11.415Z,0.00
2018-08-19T00:24:11.390Z,0.00
2018-08-19T00:25:11.402Z,0.00
2018-08-19T00:26:11.344Z,0.00
2018-08-19T00:27:11.316Z,0.00
2018-08-19T00:28:11.307Z,0.00
2018-08-19T00:29:11.266Z,0.00
2018-08-19T00:30:11.283Z,0.00
2018-08-19T00:31:11.218Z,0.00
2018-08-19T00:32:11.192Z,0.00
2018-08-19T00:33:11.164Z,0.00
2018-08-19T00:34:11.186Z,0.00
2018-08-19T00:35:11.156Z,0.00
2018-08-19T00:36:11.090Z,0.00
2018-08-19T00:37:11.066Z,0.00
2018-08-19T00:38:11.054Z,0.00
2018-08-19T00:39:11.014Z,0.00
2018-08-19T00:40:10.993Z,0.00
2018-08-19T00:41:10.960Z,0.00
2018-08-19T00:42:10.935Z,0.00
2018-08-19T00:43:10.931Z,0.00
2018-08-19T00:44:10.893Z,0.00
2018-08-19T00:45:10.866Z,0.00
2018-08-19T00:46:10.835Z,0.00
2018-08-19T00:47:10.816Z,0.00
2018-08-19T00:48:10.786Z,0.00
2018-08-19T00:49:10.771Z,0.00
2018-08-19T00:50:10.730Z,0.00
2018-08-19T00:51:10.714Z,0.00
2018-08-19T00:52:10.695Z,0.00
2018-08-19T00:53:10.658Z,0.00
2018-08-19T00:54:10.635Z,0.00
2018-08-19T00:55:10.666Z,0.00
2018-08-19T00:56:10.605Z,0.00
2018-08-19T00:57:10.569Z,0.00
2018-08-19T00:58:10.534Z,0.00
2018-08-19T00:59:10.541Z,0.00
2018-08-19T01:00:10.488Z,0.00
2018-08-19T01:01:10.481Z,0.00
2018-08-19T01:02:10.439Z,0.00
2018-08-19T01:03:10.456Z,0.00
2018-08-19T01:04:10.447Z,0.00
2018-08-19T01:05:10.353Z,0.00
2018-08-19T01:06:10.341Z,0.00
2018-08-19T01:07:10.308Z,0.00
2018-08-19T01:08:10.314Z,0.00
2018-08-19T01:09:10.251Z,0.00
2018-08-19T01:10:10.232Z,0.00
2018-08-19T01:11:10.255Z,0.00
2018-08-19T01:12:10.176Z,0.00
2018-08-19T01:13:10.153Z,0.00
2018-08-19T01:14:10.159Z,0.00
2018-08-19T01:15:10.106Z,0.00
2018-08-19T01:16:10.078Z,0.00
2018-08-19T01:17:10.081Z,0.00
2018-08-19T01:18:10.028Z,0.00
2018-08-19T01:19:10.009Z,0.00
2018-08-19T01:20:09.978Z,0.00
2018-08-19T01:21:09.963Z,0.00
2018-08-19T01:22:09.924Z,0.00
2018-08-19T01:23:09.932Z,0.00
2018-08-19T01:24:09.878Z,0.00
2018-08-19T01:25:09.858Z,0.00
2018-08-19T01:26:09.827Z,0.00
2018-08-19T01:27:09.804Z,0.00
2018-08-19T01:28:09.775Z,0.00
2018-08-19T01:29:09.770Z,0.00
2018-08-19T01:30:09.775Z,0.00
2018-08-19T01:31:09.701Z,0.00
2018-08-19T01:32:09.674Z,0.00
2018-08-19T01:33:09.664Z,0.00
2018-08-19T01:34:09.665Z,0.00
2018-08-19T01:35:09.659Z,0.00
2018-08-19T01:36:09.574Z,0.00
2018-08-19T01:37:09.553Z,0.00
2018-08-19T01:38:09.529Z,0.00
2018-08-19T01:39:09.509Z,0.00
2018-08-19T01:40:09.473Z,0.00
2018-08-19T01:41:09.460Z,0.00
2018-08-19T01:42:09.423Z,0.00
2018-08-19T01:43:09.395Z,0.00
2018-08-19T01:44:09.368Z,0.00
2018-08-19T01:45:09.367Z,0.00
2018-08-19T01:46:09.323Z,0.00
2018-08-19T01:47:09.292Z,0.00
2018-08-19T01:48:09.272Z,0.00
2018-08-19T01:49:09.248Z,0.00
2018-08-19T01:50:09.221Z,0.00
2018-08-19T01:51:09.207Z,0.00
2018-08-19T01:52:09.172Z,0.00
2018-08-19T01:53:09.143Z,0.00
2018-08-19T01:54:09.119Z,0.00
2018-08-19T01:55:09.168Z,0.00
2018-08-19T01:56:09.075Z,0.00
2018-08-19T01:57:09.056Z,0.00
2018-08-19T01:58:09.019Z,0.00
2018-08-19T01:59:08.994Z,0.00
2018-08-19T02:00:08.978Z,0.00
2018-08-19T02:01:08.946Z,0.00
2018-08-19T02:02:08.920Z,0.00
2018-08-19T02:03:08.897Z,0.00
2018-08-19T02:04:08.865Z,0.00
2018-08-19T02:05:08.920Z,0.00
2018-08-19T02:06:08.819Z,0.00
2018-08-19T02:07:08.802Z,0.00
2018-08-19T02:08:08.772Z,0.00
2018-08-19T02:09:08.754Z,0.00
2018-08-19T02:10:08.722Z,0.00
2018-08-19T02:11:08.686Z,0.00
2018-08-19T02:12:08.671Z,0.00
2018-08-19T02:13:08.644Z,0.00
2018-08-19T02:14:08.617Z,0.00
2018-08-19T02:15:08.602Z,0.00
2018-08-19T02:16:08.563Z,0.00
2018-08-19T02:17:08.539Z,0.00
2018-08-19T02:18:08.513Z,0.00
2018-08-19T02:19:08.505Z,0.00
2018-08-19T02:20:08.464Z,0.00
2018-08-19T02:21:08.470Z,0.00
2018-08-19T02:22:08.415Z,0.00
2018-08-19T02:23:08.392Z,0.00
2018-08-19T02:24:08.359Z,0.00
2018-08-19T02:25:08.343Z,0.00
2018-08-19T02:26:08.362Z,0.00
2018-08-19T02:27:08.287Z,0.00
2018-08-19T02:28:08.278Z,0.00
2018-08-19T02:29:08.267Z,0.00
2018-08-19T02:30:08.217Z,0.00
2018-08-19T02:31:08.182Z,0.00
2018-08-19T02:32:08.171Z,0.00
2018-08-19T02:33:08.134Z,0.00
2018-08-19T02:34:08.120Z,0.00
2018-08-19T02:35:08.083Z,0.00
2018-08-19T02:36:08.065Z,0.00
2018-08-19T02:37:08.081Z,0.00
2018-08-19T02:38:08.031Z,0.00
2018-08-19T02:39:07.980Z,0.00
2018-08-19T02:40:07.957Z,0.00
2018-08-19T02:41:07.989Z,0.00
2018-08-19T02:42:07.912Z,0.00
2018-08-19T02:43:07.903Z,0.00
2018-08-19T02:44:07.861Z,0.00
2018-08-19T02:45:07.828Z,0.00
2018-08-19T02:46:07.808Z,0.00
2018-08-19T02:47:07.780Z,0.00
2018-08-19T02:48:07.757Z,0.00
2018-08-19T02:49:07.730Z,0.00
2018-08-19T02:50:07.709Z,0.00
2018-08-19T02:51:07.683Z,0.00
2018-08-19T02:52:07.664Z,0.00
2018-08-19T02:53:07.625Z,0.00
2018-08-19T02:54:07.606Z,0.00
2018-08-19T02:55:07.589Z,0.00
2018-08-19T02:56:07.553Z,0.00
2018-08-19T02:57:07.533Z,0.00
2018-08-19T02:58:07.508Z,0.00
2018-08-19T02:59:07.481Z,0.00
2018-08-19T03:00:07.457Z,0.00
2018-08-19T03:01:07.432Z,0.00
2018-08-19T03:02:07.399Z,0.00
2018-08-19T03:03:07.382Z,0.00
2018-08-19T03:04:07.356Z,0.00
2018-08-19T03:05:07.328Z,0.00
2018-08-19T03:06:07.296Z,0.00
2018-08-19T03:07:07.280Z,0.00
2018-08-19T03:08:07.251Z,0.00
2018-08-19T03:09:07.224Z,0.00
2018-08-19T03:10:07.203Z,0.00
2018-08-19T03:11:07.168Z,0.00
2018-08-19T03:12:07.145Z,0.00
2018-08-19T03:13:07.130Z,0.00
2018-08-19T03:14:07.101Z,0.00
2018-08-19T03:15:07.207Z,0.00
2018-08-19T03:16:07.055Z,0.00
2018-08-19T03:17:07.024Z,0.00
2018-08-19T03:18:06.993Z,0.00
2018-08-19T03:19:06.976Z,0.00
2018-08-19T03:20:06.946Z,0.00
2018-08-19T03:21:06.926Z,0.00
2018-08-19T03:22:06.906Z,0.00
2018-08-19T03:23:06.871Z,0.00
2018-08-19T03:24:06.861Z,0.00
2018-08-19T03:25:06.826Z,0.00
2018-08-19T03:26:06.788Z,0.00
2018-08-19T03:27:06.775Z,0.00
2018-08-19T03:28:06.763Z,0.00
2018-08-19T03:29:06.724Z,0.00
2018-08-19T03:30:06.689Z,0.00
2018-08-19T03:31:06.672Z,0.00
2018-08-19T03:32:06.645Z,0.00
2018-08-19T03:33:06.626Z,0.00
2018-08-19T03:34:06.596Z,0.00
2018-08-19T03:35:06.571Z,0.00
2018-08-19T03:36:06.555Z,0.00
2018-08-19T03:37:06.542Z,0.00
2018-08-19T03:38:06.548Z,0.00
2018-08-19T03:39:06.468Z,0.00
2018-08-19T03:40:06.435Z,0.00
2018-08-19T03:41:06.418Z,0.00
2018-08-19T03:42:06.386Z,0.00
2018-08-19T03:43:06.366Z,0.00
2018-08-19T03:44:06.336Z,0.00
2018-08-19T03:45:06.316Z,0.00
2018-08-19T03:46:06.286Z,0.00
2018-08-19T03:47:06.267Z,0.00
2018-08-19T03:48:06.242Z,0.00
2018-08-19T03:49:06.209Z,0.00
2018-08-19T03:50:06.187Z,0.00
2018-08-19T03:51:06.164Z,0.00
2018-08-19T03:52:06.142Z,0.00
2018-08-19T03:53:06.113Z,0.00
2018-08-19T03:54:06.082Z,0.00
2018-08-19T03:55:06.067Z,0.00
2018-08-19T03:56:06.039Z,0.00
2018-08-19T03:57:06.006Z,0.00
2018-08-19T03:58:06.004Z,0.00
2018-08-19T03:59:05.974Z,4.00
2018-08-19T04:00:05.931Z,4.00
2018-08-19T04:01:05.911Z,4.00
2018-08-19T04:02:05.875Z,0.00
2018-08-19T04:03:05.854Z,4.00
2018-08-19T04:04:05.852Z,4.00
2018-08-19T04:05:05.803Z,4.00
2018-08-19T04:06:05.795Z,8.00
2018-08-19T04:07:05.760Z,4.00
2018-08-19T04:08:05.728Z,8.00
2018-08-19T04:09:05.699Z,8.00
2018-08-19T04:10:05.680Z,8.00
2018-08-19T04:11:05.662Z,12.00
2018-08-19T04:12:05.629Z,16.00
2018-08-19T04:13:05.600Z,16.00
2018-08-19T04:14:05.581Z,16.00
2018-08-19T04:15:05.550Z,20.00
2018-08-19T04:16:05.526Z,20.00
2018-08-19T04:17:05.502Z,28.00
2018-08-19T04:18:05.490Z,32.00
2018-08-19T04:19:05.450Z,32.00
2018-08-19T04:20:05.428Z,36.00
2018-08-19T04:21:05.395Z,40.00
2018-08-19T04:22:05.372Z,44.00
2018-08-19T04:23:05.356Z,48.00
2018-08-19T04:24:05.320Z,52.00
2018-08-19T04:25:05.296Z,60.00
2018-08-19T04:26:05.270Z,64.00
2018-08-19T04:27:05.251Z,68.00
2018-08-19T04:28:05.227Z,76.00
2018-08-19T04:29:05.196Z,84.00
2018-08-19T04:30:05.166Z,92.00
2018-08-19T04:31:05.152Z,100.00
2018-08-19T04:32:05.117Z,104.00
2018-08-19T04:33:05.107Z,116.00
2018-08-19T04:34:05.074Z,124.00
2018-08-19T04:35:05.041Z,132.00
2018-08-19T04:36:05.016Z,140.00
2018-08-19T04:37:04.992Z,152.00
2018-08-19T04:38:04.966Z,156.00
2018-08-19T04:39:04.936Z,164.00
2018-08-19T04:40:04.921Z,176.00
2018-08-19T04:41:04.897Z,184.00
2018-08-19T04:42:04.861Z,192.00
2018-08-19T04:43:04.848Z,200.00
2018-08-19T04:44:04.819Z,208.00
2018-08-19T04:45:04.791Z,220.00
2018-08-19T04:46:04.763Z,228.00
2018-08-19T04:47:04.749Z,236.00
2018-08-19T04:48:04.713Z,248.00
2018-08-19T04:49:04.687Z,256.00
2018-08-19T04:50:04.661Z,268.00
2018-08-19T04:51:04.638Z,276.00
2018-08-19T04:52:04.614Z,284.00
2018-08-19T04:53:04.585Z,292.00
2018-08-19T04:54:04.572Z,304.00
2018-08-19T04:55:04.541Z,316.00
2018-08-19T04:56:04.507Z,324.00
2018-08-19T04:57:04.501Z,332.00
2018-08-19T04:58:04.460Z,344.00
2018-08-19T04:59:04.431Z,356.00
2018-08-19T05:00:04.408Z,368.00
2018-08-19T05:01:04.379Z,380.00
2018-08-19T05:02:04.428Z,380.00
2018-08-19T05:03:04.330Z,388.00
2018-08-19T05:04:04.309Z,400.00
2018-08-19T05:05:04.286Z,412.00
2018-08-19T05:06:04.254Z,420.00
2018-08-19T05:07:04.233Z,428.00
2018-08-19T05:08:04.221Z,436.00
2018-08-19T05:09:04.182Z,448.00
2018-08-19T05:10:04.151Z,456.00
2018-08-19T05:11:04.135Z,468.00
2018-08-19T05:12:04.097Z,476.00
2018-08-19T05:13:04.080Z,500.00
2018-08-19T05:14:04.068Z,512.00
2018-08-19T05:15:04.033Z,528.00
2018-08-19T05:16:04.002Z,532.00
2018-08-19T05:17:03.971Z,536.00
2018-08-19T05:18:03.950Z,552.00
2018-08-19T05:19:03.920Z,572.00
2018-08-19T05:20:03.899Z,588.00
2018-08-19T05:21:03.889Z,596.00
2018-08-19T05:22:03.851Z,604.00
2018-08-19T05:23:03.819Z,616.00
2018-08-19T05:24:03.797Z,632.00
2018-08-19T05:25:03.773Z,644.00
2018-08-19T05:26:03.763Z,640.00
2018-08-19T05:27:03.722Z,640.00
2018-08-19T05:28:03.694Z,648.00
2018-08-19T05:29:03.673Z,664.00
2018-08-19T05:30:03.639Z,664.00
2018-08-19T05:31:03.647Z,676.00
2018-08-19T05:32:03.595Z,672.00
2018-08-19T05:33:03.566Z,684.00
2018-08-19T05:34:03.541Z,692.00
2018-08-19T05:35:03.515Z,688.00
2018-08-19T05:36:03.489Z,688.00
2018-08-19T05:37:03.466Z,684.00
2018-08-19T05:38:03.468Z,688.00
2018-08-19T05:39:03.417Z,704.00
2018-08-19T05:40:03.393Z,704.00
2018-08-19T05:41:03.384Z,700.00
2018-08-19T05:42:03.332Z,704.00
2018-08-19T05:43:03.316Z,712.00
2018-08-19T05:44:03.290Z,716.00
2018-08-19T05:45:03.261Z,724.00
2018-08-19T05:46:03.429Z,736.00
2018-08-19T05:47:03.339Z,740.00
2018-08-19T05:48:03.232Z,748.00
2018-08-19T05:49:03.165Z,756.00
2018-08-19T05:50:03.268Z,760.00
2018-08-19T05:51:03.143Z,756.00
2018-08-19T05:52:03.128Z,764.00
2018-08-19T05:53:03.076Z,764.00
2018-08-19T05:54:03.076Z,772.00
2018-08-19T05:55:03.021Z,776.00
2018-08-19T05:56:02.986Z,784.00
2018-08-19T05:57:02.961Z,788.00
2018-08-19T05:58:02.933Z,796.00
2018-08-19T05:59:02.908Z,800.00
2018-08-19T06:00:02.886Z,800.00
2018-08-19T06:01:02.946Z,808.00
2018-08-19T06:02:02.824Z,812.00
2018-08-19T06:03:02.820Z,820.00
2018-08-19T06:04:02.782Z,824.00
2018-08-19T06:05:02.765Z,828.00
2018-08-19T06:06:02.730Z,832.00
2018-08-19T06:07:02.723Z,840.00
2018-08-19T06:08:02.677Z,840.00
2018-08-19T06:09:02.656Z,852.00
2018-08-19T06:10:02.626Z,852.00
2018-08-19T06:11:02.602Z,856.00
2018-08-19T06:12:02.575Z,860.00
2018-08-19T06:13:02.553Z,864.00
2018-08-19T06:14:02.555Z,872.00
2018-08-19T06:15:02.563Z,876.00
2018-08-19T06:16:02.502Z,876.00
2018-08-19T06:17:02.498Z,876.00
2018-08-19T06:18:02.428Z,880.00
2018-08-19T06:19:02.396Z,880.00
2018-08-19T06:20:02.374Z,888.00
2018-08-19T06:21:02.350Z,888.00
2018-08-19T06:22:02.408Z,892.00
2018-08-19T06:23:02.295Z,896.00
2018-08-19T06:24:02.275Z,896.00
2018-08-19T06:25:02.259Z,896.00
2018-08-19T06:26:02.333Z,900.00
2018-08-19T06:27:02.240Z,900.00
2018-08-19T06:28:02.171Z,904.00
2018-08-19T06:29:02.148Z,904.00
2018-08-19T06:30:02.135Z,912.00
2018-08-19T06:31:02.103Z,908.00
2018-08-19T06:32:02.068Z,908.00
2018-08-19T06:33:02.049Z,912.00
2018-08-19T06:34:02.019Z,912.00
2018-08-19T06:35:02.203Z,912.00
2018-08-19T06:36:01.971Z,920.00
2018-08-19T06:37:01.947Z,920.00
2018-08-19T06:38:01.925Z,928.00
2018-08-19T06:39:01.897Z,932.00
2018-08-19T06:40:01.873Z,928.00
2018-08-19T06:41:01.860Z,932.00
2018-08-19T06:42:01.822Z,932.00
2018-08-19T06:43:01.804Z,936.00
2018-08-19T06:44:01.771Z,940.00
2018-08-19T06:45:01.742Z,944.00
2018-08-19T06:46:01.711Z,944.00
2018-08-19T06:47:01.696Z,948.00
2018-08-19T06:48:01.670Z,948.00
2018-08-19T06:49:01.637Z,952.00
2018-08-19T06:50:01.619Z,952.00
2018-08-19T06:51:01.585Z,952.00
2018-08-19T06:52:01.567Z,956.00
2018-08-19T06:53:01.541Z,960.00
2018-08-19T06:54:01.514Z,964.00
2018-08-19T06:55:01.491Z,964.00
2018-08-19T06:56:01.465Z,968.00
2018-08-19T06:57:01.436Z,968.00
2018-08-19T06:58:01.417Z,972.00
2018-08-19T06:59:01.385Z,972.00
2018-08-19T07:00:01.363Z,972.00
2018-08-19T07:01:01.341Z,980.00
2018-08-19T07:02:01.310Z,980.00
2018-08-19T07:03:01.293Z,980.00
2018-08-19T07:04:01.308Z,984.00
2018-08-19T07:05:01.252Z,984.00
2018-08-19T07:06:01.216Z,992.00
2018-08-19T07:07:01.185Z,996.00
2018-08-19T07:08:01.170Z,996.00
2018-08-19T07:09:01.134Z,1000.00
2018-08-19T07:10:01.110Z,1000.00
2018-08-19T07:11:01.083Z,1004.00
2018-08-19T07:12:01.088Z,1000.00
2018-08-19T07:13:01.043Z,1004.00
2018-08-19T07:14:01.010Z,1012.00
2018-08-19T07:15:00.987Z,1008.00
2018-08-19T07:16:00.970Z,1016.00
2018-08-19T07:17:00.936Z,1012.00
2018-08-19T07:18:00.905Z,1024.00
2018-08-19T07:19:00.891Z,1020.00
2018-08-19T07:20:00.903Z,1032.00
2018-08-19T07:21:00.842Z,1032.00
2018-08-19T07:22:00.813Z,1036.00
2018-08-19T07:23:00.792Z,1040.00
2018-08-19T07:24:00.765Z,1040.00
2018-08-19T07:25:00.737Z,1044.00
2018-08-19T07:26:00.712Z,1052.00
2018-08-19T07:27:00.684Z,1052.00
2018-08-19T07:28:00.671Z,1052.00
2018-08-19T07:29:00.637Z,1064.00
2018-08-19T07:30:00.603Z,1068.00
2018-08-19T07:31:00.591Z,1072.00
2018-08-19T07:32:00.556Z,1080.00
2018-08-19T07:33:00.537Z,1112.00
2018-08-19T07:34:00.506Z,1080.00
2018-08-19T07:35:00.485Z,1088.00
2018-08-19T07:36:00.457Z,1100.00
2018-08-19T07:37:00.545Z,1104.00
2018-08-19T07:38:00.409Z,1104.00
2018-08-19T07:39:00.384Z,1096.00
2018-08-19T07:40:00.359Z,1092.00
2018-08-19T07:41:00.339Z,1104.00
2018-08-19T07:42:00.311Z,1120.00
2018-08-19T07:43:00.284Z,1108.00
2018-08-19T07:44:00.379Z,1116.00
2018-08-19T07:45:00.229Z,1112.00
2018-08-19T07:46:00.206Z,1124.00
2018-08-19T07:47:00.187Z,1112.00
2018-08-19T07:48:00.171Z,1116.00
2018-08-19T07:49:00.130Z,1120.00
2018-08-19T07:50:00.112Z,1120.00
2018-08-19T07:51:00.081Z,1124.00
2018-08-19T07:52:00.054Z,1128.00
2018-08-19T07:53:00.074Z,1140.00
2018-08-19T07:54:00.013Z,1136.00
2018-08-19T07:55:00.011Z,1148.00
2018-08-19T07:55:59.963Z,1148.00
2018-08-19T07:56:59.935Z,1160.00
2018-08-19T07:57:59.904Z,1148.00
2018-08-19T07:58:59.881Z,1200.00
2018-08-19T07:59:59.860Z,1204.00
2018-08-19T08:00:59.831Z,1188.00
2018-08-19T08:01:59.805Z,1188.00
2018-08-19T08:02:59.787Z,1180.00
2018-08-19T08:03:59.759Z,1244.00
2018-08-19T08:04:59.728Z,1180.00
2018-08-19T08:05:59.712Z,1188.00
2018-08-19T08:06:59.681Z,1184.00
2018-08-19T08:07:59.655Z,1192.00
2018-08-19T08:08:59.632Z,1148.00
2018-08-19T08:09:59.606Z,1164.00
2018-08-19T08:10:59.623Z,1216.00
2018-08-19T08:11:59.561Z,1256.00
2018-08-19T08:12:59.537Z,1216.00
2018-08-19T08:13:59.525Z,1360.00
2018-08-19T08:14:59.476Z,1660.00
2018-08-19T08:15:59.457Z,1572.00
2018-08-19T08:16:59.435Z,1348.00
2018-08-19T08:17:59.410Z,1456.00
2018-08-19T08:18:59.390Z,1892.00
2018-08-19T08:19:59.355Z,2072.00
2018-08-19T08:20:59.333Z,1516.00
2018-08-19T08:21:59.302Z,1720.00
2018-08-19T08:22:59.287Z,1540.00
2018-08-19T08:23:59.256Z,1428.00
2018-08-19T08:24:59.235Z,1396.00
2018-08-19T08:25:59.268Z,1488.00
2018-08-19T08:26:59.180Z,1660.00
2018-08-19T08:27:59.161Z,1720.00
2018-08-19T08:28:59.133Z,2156.00
2018-08-19T08:29:59.108Z,1716.00
2018-08-19T08:30:59.083Z,1824.00
2018-08-19T08:31:59.053Z,1796.00
2018-08-19T08:32:59.037Z,1540.00
2018-08-19T08:33:59.004Z,1692.00
2018-08-19T08:34:58.991Z,1488.00
2018-08-19T08:35:58.953Z,1500.00
2018-08-19T08:36:58.935Z,1580.00
2018-08-19T08:37:58.908Z,1856.00
2018-08-19T08:38:58.905Z,1840.00
2018-08-19T08:39:58.857Z,1732.00
2018-08-19T08:40:58.835Z,1760.00
2018-08-19T08:41:58.811Z,1812.00
2018-08-19T08:42:58.795Z,1948.00
2018-08-19T08:43:58.752Z,1908.00
2018-08-19T08:44:58.731Z,2052.00
2018-08-19T08:45:58.705Z,2164.00
2018-08-19T08:46:58.682Z,2148.00
2018-08-19T08:47:58.722Z,1944.00
2018-08-19T08:48:58.636Z,1904.00
2018-08-19T08:49:58.611Z,2348.00
2018-08-19T08:50:58.609Z,2988.00
2018-08-19T08:51:58.562Z,3244.00
2018-08-19T08:52:58.528Z,3120.00
2018-08-19T08:53:58.508Z,3300.00
2018-08-19T08:54:58.480Z,2960.00
2018-08-19T08:55:58.462Z,2644.00
2018-08-19T08:56:58.438Z,2920.00
2018-08-19T08:57:58.406Z,2860.00
2018-08-19T08:58:58.398Z,3024.00
2018-08-19T08:59:58.362Z,2712.00
2018-08-19T09:00:58.335Z,2712.00
2018-08-19T09:01:58.306Z,3196.00
2018-08-19T09:02:58.290Z,3216.00
2018-08-19T09:03:58.258Z,3264.00
2018-08-19T09:04:58.241Z,3452.00
2018-08-19T09:05:58.208Z,2856.00
2018-08-19T09:06:58.192Z,3048.00
2018-08-19T09:07:58.169Z,3316.00
2018-08-19T09:08:58.138Z,2760.00
2018-08-19T09:09:58.116Z,2268.00
2018-08-19T09:10:58.094Z,2016.00
2018-08-19T09:11:58.062Z,2116.00
2018-08-19T09:12:58.038Z,2280.00
2018-08-19T09:13:58.147Z,2124.00
2018-08-19T09:14:57.984Z,1904.00
2018-08-19T09:15:57.962Z,1972.00
2018-08-19T09:16:57.942Z,1660.00
2018-08-19T09:17:57.919Z,1684.00
2018-08-19T09:18:57.887Z,1592.00
2018-08-19T09:19:57.865Z,1552.00
2018-08-19T09:20:57.839Z,1688.00
2018-08-19T09:21:57.816Z,2032.00
2018-08-19T09:22:57.846Z,1932.00
2018-08-19T09:23:57.762Z,1724.00
2018-08-19T09:24:57.757Z,1776.00
2018-08-19T09:25:57.800Z,1536.00
2018-08-19T09:26:57.693Z,1508.00
2018-08-19T09:27:57.786Z,1656.00
2018-08-19T09:28:57.654Z,1568.00
2018-08-19T09:29:57.621Z,1608.00
2018-08-19T09:30:57.591Z,1780.00
2018-08-19T09:31:57.561Z,1736.00
2018-08-19T09:32:57.603Z,1880.00
2018-08-19T09:33:57.624Z,1872.00
2018-08-19T09:34:57.500Z,1872.00
2018-08-19T09:35:57.473Z,2080.00
2018-08-19T09:36:57.439Z,2008.00
2018-08-19T09:37:57.422Z,2112.00
2018-08-19T09:38:57.388Z,2036.00
2018-08-19T09:39:57.364Z,1864.00
2018-08-19T09:40:57.345Z,2044.00
2018-08-19T09:41:57.312Z,2220.00
2018-08-19T09:42:57.297Z,2488.00
2018-08-19T09:43:57.273Z,2504.00
2018-08-19T09:44:57.243Z,2520.00
2018-08-19T09:45:57.451Z,2396.00
2018-08-19T09:46:57.204Z,2312.00
2018-08-19T09:47:57.362Z,2692.00
2018-08-19T09:48:57.145Z,2852.00
2018-08-19T09:49:57.114Z,3096.00
2018-08-19T09:50:57.097Z,3424.00
2018-08-19T09:51:57.073Z,3908.00
2018-08-19T09:52:57.055Z,4208.00
2018-08-19T09:53:57.017Z,4152.00
2018-08-19T09:54:57.000Z,4060.00
2018-08-19T09:55:56.968Z,3912.00
2018-08-19T09:56:56.949Z,3696.00
2018-08-19T09:57:56.919Z,3288.00
2018-08-19T09:58:56.903Z,3020.00
2018-08-19T09:59:56.873Z,3136.00
2018-08-19T10:00:56.850Z,3132.00
2018-08-19T10:01:56.822Z,2684.00
2018-08-19T10:02:56.798Z,2584.00
2018-08-19T10:03:56.769Z,2440.00
2018-08-19T10:04:56.761Z,2096.00
2018-08-19T10:05:56.739Z,1892.00
2018-08-19T10:06:56.697Z,1772.00
2018-08-19T10:07:56.678Z,1824.00
2018-08-19T10:08:56.653Z,1892.00
2018-08-19T10:09:56.631Z,2088.00
2018-08-19T10:10:56.613Z,2052.00
2018-08-19T10:11:56.583Z,1932.00
2018-08-19T10:12:56.563Z,1928.00
2018-08-19T10:13:56.530Z,2364.00
2018-08-19T10:14:56.505Z,2032.00
2018-08-19T10:15:56.525Z,2068.00
2018-08-19T10:16:56.462Z,2024.00
2018-08-19T10:17:56.428Z,1884.00
2018-08-19T10:18:56.407Z,1788.00
2018-08-19T10:19:56.385Z,1652.00
2018-08-19T10:20:56.352Z,1700.00
2018-08-19T10:21:56.331Z,1904.00
2018-08-19T10:22:56.310Z,2324.00
2018-08-19T10:23:56.277Z,2492.00
2018-08-19T10:24:56.261Z,2208.00
2018-08-19T10:25:56.245Z,2296.00
2018-08-19T10:26:56.212Z,2512.00
2018-08-19T10:27:56.182Z,2468.00
2018-08-19T10:28:56.166Z,2160.00
2018-08-19T10:29:56.133Z,1960.00
2018-08-19T10:30:56.112Z,1792.00
2018-08-19T10:31:56.091Z,1828.00
2018-08-19T10:32:56.059Z,1764.00
2018-08-19T10:33:56.044Z,1680.00
2018-08-19T10:34:56.044Z,1688.00
2018-08-19T10:35:55.988Z,1636.00
2018-08-19T10:36:55.968Z,1624.00
2018-08-19T10:37:55.947Z,1616.00
2018-08-19T10:38:55.912Z,1620.00
2018-08-19T10:39:55.894Z,1624.00
2018-08-19T10:40:55.861Z,1676.00
2018-08-19T10:41:55.848Z,1776.00
2018-08-19T10:42:55.812Z,1872.00
2018-08-19T10:43:55.791Z,1828.00
2018-08-19T10:44:55.770Z,1808.00
2018-08-19T10:45:55.739Z,1788.00
2018-08-19T10:46:55.723Z,1720.00
2018-08-19T10:47:55.695Z,1696.00
2018-08-19T10:48:55.668Z,1736.00
2018-08-19T10:49:55.647Z,1848.00
2018-08-19T10:50:55.617Z,1872.00
2018-08-19T10:51:55.601Z,1820.00
2018-08-19T10:52:55.574Z,1744.00
2018-08-19T10:53:55.548Z,1768.00
2018-08-19T10:54:55.521Z,1820.00
2018-08-19T10:55:55.501Z,1892.00
2018-08-19T10:56:55.676Z,1852.00
2018-08-19T10:57:55.444Z,1788.00
2018-08-19T10:58:55.432Z,1800.00
2018-08-19T10:59:55.484Z,1856.00
2018-08-19T11:00:55.386Z,1856.00
2018-08-19T11:01:55.351Z,1840.00
2018-08-19T11:02:55.331Z,1900.00
2018-08-19T11:03:55.311Z,1928.00
2018-08-19T11:04:55.282Z,1844.00
2018-08-19T11:05:55.264Z,1844.00
2018-08-19T11:06:55.230Z,1852.00
2018-08-19T11:07:55.211Z,1844.00
2018-08-19T11:08:55.183Z,1888.00
2018-08-19T11:09:55.163Z,1888.00
2018-08-19T11:10:55.146Z,1908.00
2018-08-19T11:11:55.119Z,1968.00
2018-08-19T11:12:55.087Z,1944.00
2018-08-19T11:13:55.068Z,1952.00
2018-08-19T11:14:55.038Z,1960.00
2018-08-19T11:15:55.013Z,1948.00
2018-08-19T11:16:54.991Z,1932.00
2018-08-19T11:17:54.970Z,1912.00
2018-08-19T11:18:54.945Z,1920.00
2018-08-19T11:19:54.915Z,1944.00
2018-08-19T11:20:54.901Z,1980.00
2018-08-19T11:21:54.873Z,1996.00
2018-08-19T11:22:54.845Z,2032.00
2018-08-19T11:23:54.820Z,1976.00
2018-08-19T11:24:54.792Z,1960.00
2018-08-19T11:25:54.770Z,1908.00
2018-08-19T11:26:54.756Z,1936.00
2018-08-19T11:27:54.721Z,1932.00
2018-08-19T11:28:54.706Z,1976.00
2018-08-19T11:29:54.671Z,1944.00
2018-08-19T11:30:54.655Z,1964.00
2018-08-19T11:31:54.629Z,1992.00
2018-08-19T11:32:54.603Z,1956.00
2018-08-19T11:33:54.589Z,1948.00
2018-08-19T11:34:54.550Z,1964.00
2018-08-19T11:35:54.530Z,1984.00
2018-08-19T11:36:54.511Z,1976.00
2018-08-19T11:37:54.485Z,2004.00
2018-08-19T11:38:54.463Z,2060.00
2018-08-19T11:39:54.431Z,2044.00
2018-08-19T11:40:54.410Z,2072.00
2018-08-19T11:41:54.386Z,2064.00
2018-08-19T11:42:54.364Z,2080.00
2018-08-19T11:43:54.343Z,2104.00
2018-08-19T11:44:54.319Z,2108.00
2018-08-19T11:45:54.288Z,2124.00
2018-08-19T11:46:54.267Z,2200.00
2018-08-19T11:47:54.273Z,2204.00
2018-08-19T11:48:54.254Z,2224.00
2018-08-19T11:49:54.197Z,2240.00
2018-08-19T11:50:54.167Z,2228.00
2018-08-19T11:51:54.144Z,2284.00
2018-08-19T11:52:54.127Z,2276.00
2018-08-19T11:53:54.096Z,2240.00
2018-08-19T11:54:54.075Z,2176.00
2018-08-19T11:55:54.068Z,2176.00
2018-08-19T11:56:54.027Z,2176.00
2018-08-19T11:57:54.006Z,2176.00
2018-08-19T11:58:53.984Z,2168.00
2018-08-19T11:59:53.954Z,2200.00
2018-08-19T12:00:53.982Z,2184.00
2018-08-19T12:01:53.901Z,2168.00
2018-08-19T12:02:53.888Z,2196.00
2018-08-19T12:03:53.858Z,2152.00
2018-08-19T12:04:53.845Z,2132.00
2018-08-19T12:05:53.812Z,2140.00
2018-08-19T12:06:53.787Z,2120.00
2018-08-19T12:07:53.760Z,2148.00
2018-08-19T12:08:53.743Z,2096.00
2018-08-19T12:09:53.708Z,2096.00
2018-08-19T12:10:53.696Z,2100.00
2018-08-19T12:11:53.668Z,2152.00
2018-08-19T12:12:53.647Z,2188.00
2018-08-19T12:13:53.626Z,2160.00
2018-08-19T12:14:53.601Z,2216.00
2018-08-19T12:15:53.571Z,2176.00
2018-08-19T12:16:53.603Z,2192.00
2018-08-19T12:17:53.522Z,2184.00
2018-08-19T12:18:53.500Z,2200.00
2018-08-19T12:19:53.475Z,2216.00
2018-08-19T12:20:53.454Z,2212.00
2018-08-19T12:21:53.424Z,2240.00
2018-08-19T12:22:53.407Z,2256.00
2018-08-19T12:23:53.375Z,2256.00
2018-08-19T12:24:53.364Z,2304.00
2018-08-19T12:25:53.339Z,2312.00
2018-08-19T12:26:53.313Z,2240.00
2018-08-19T12:27:53.371Z,2236.00
2018-08-19T12:28:53.272Z,2232.00
2018-08-19T12:29:53.247Z,2228.00
2018-08-19T12:30:53.703Z,2196.00
2018-08-19T12:31:53.234Z,2224.00
2018-08-19T12:32:53.165Z,2188.00
2018-08-19T12:33:53.160Z,2184.00